Time;durP1;ratioP1;P1;durP2;ratioP2;P2;SDS_P1;SDS_P2;PMS_P1;PMS_P2;Temp;Humidity;BMP_temperature;BMP_pressure;BME280_temperature;BME280_humidity;BME280_pressure;Samples;Min_cycle;Max_cycle;Signal;HPM_P1;HPM_P2
2022/02/07 00:07:16;;;;;;;0.90;0.90;;;;;;;2.78;86.09;97241.31;431503;1270;141886;-67
2022/02/07 00:17:23;;;;;;;1.40;1.30;;;;;;;2.74;85.45;97248.46;430997;1270;142655;-61
2022/02/07 00:27:29;;;;;;;2.10;1.20;;;;;;;2.58;85.49;97245.95;433539;1268;141373;-62
2022/02/07 00:37:37;;;;;;;1.00;1.00;;;;;;;2.49;85.45;97264.66;432185;1269;142321;-59
2022/02/07 00:47:43;;;;;;;2.50;1.90;;;;;;;2.29;85.51;97269.18;431386;1271;143114;-60
2022/02/07 00:57:49;;;;;;;2.30;2.10;;;;;;;1.98;85.99;97265.16;431408;1269;141963;-61
2022/02/07 01:07:58;;;;;;;1.40;1.30;;;;;;;1.82;86.32;97268.08;431237;1269;142657;-59
2022/02/07 01:49:39;;;;;;;3.70;1.80;;;;;;;1.07;86.75;97248.20;431579;1269;142750;-58
2022/02/07 01:59:45;;;;;;;1.40;1.00;;;;;;;1.16;86.85;97253.48;433218;1270;141607;-60
2022/02/07 02:09:51;;;;;;;2.50;0.90;;;;;;;1.37;86.88;97238.58;432887;1268;142001;-59
2022/02/07 02:51:07;;;;;;;3.30;1.30;;;;;;;1.82;86.60;97254.09;432270;1269;142160;-59
2022/02/07 03:01:13;;;;;;;4.00;1.60;;;;;;;1.88;86.51;97264.47;432600;1269;141420;-59
2022/02/07 03:11:22;;;;;;;3.70;2.30;;;;;;;1.91;86.40;97273.70;431887;1270;180725;-59
2022/02/07 03:21:29;;;;;;;9.40;5.70;;;;;;;1.93;86.50;97274.57;433922;1270;140712;-59
2022/02/07 03:31:35;;;;;;;5.00;2.60;;;;;;;1.95;86.46;97272.55;431080;1270;144928;-59
2022/02/07 03:41:40;;;;;;;3.20;1.80;;;;;;;1.94;86.55;97265.23;430821;1268;142746;-59
2022/02/07 03:51:46;;;;;;;2.80;1.90;;;;;;;1.90;86.92;97261.90;431141;1270;142841;-59
2022/02/07 04:01:52;;;;;;;2.40;1.80;;;;;;;1.87;87.18;97255.52;431197;1270;141166;-59
2022/02/07 04:12:04;;;;;;;4.40;3.60;;;;;;;1.83;87.33;97252.30;433039;1268;141652;-59
2022/02/07 04:22:10;;;;;;;4.30;4.00;;;;;;;1.84;87.85;97255.04;433636;1270;144083;-58
2022/02/07 04:32:16;;;;;;;8.30;4.20;;;;;;;1.87;87.94;97255.19;432213;1270;141317;-58
2022/02/07 04:42:24;;;;;;;4.20;2.60;;;;;;;1.89;88.20;97258.80;432013;1270;143021;-60
2022/02/07 04:52:54;;;;;;;3.10;2.40;;;;;;;1.90;88.29;97266.18;434127;1269;141180;-60
2022/02/07 05:03:05;;;;;;;3.90;3.00;;;;;;;1.93;88.42;97271.52;431131;1270;140896;-58
2022/02/07 05:23:36;;;;;;;1.30;0.60;;;;;;;1.70;87.94;97327.15;432327;1270;144691;-58
2022/02/07 05:33:47;;;;;;;1.50;1.40;;;;;;;1.23;87.33;97355.59;431587;1270;141469;-59
2022/02/07 05:43:53;;;;;;;1.20;0.90;;;;;;;0.89;87.27;97373.67;431684;1270;143477;-58
2022/02/07 05:53:59;;;;;;;1.50;1.30;;;;;;;0.62;87.44;97400.05;432864;1270;185241;-59
2022/02/07 06:04:05;;;;;;;1.40;1.30;;;;;;;0.47;87.57;97437.42;435956;1268;141224;-59
2022/02/07 06:14:11;;;;;;;2.60;2.40;;;;;;;0.37;88.00;97447.95;440561;1268;141414;-59
2022/02/07 06:24:16;;;;;;;4.20;3.50;;;;;;;0.43;88.27;97466.73;431795;1270;142055;-58
2022/02/07 06:34:22;;;;;;;4.50;4.10;;;;;;;0.57;88.66;97494.02;431286;1270;144025;-59
2022/02/07 06:44:28;;;;;;;4.40;4.00;;;;;;;0.71;89.01;97518.35;440367;1269;141799;-59
2022/02/07 06:54:35;;;;;;;2.90;2.50;;;;;;;0.84;88.79;97545.86;439082;1268;144699;-58
2022/02/07 07:04:41;;;;;;;1.70;1.40;;;;;;;0.96;88.63;97562.92;439385;1268;193311;-59
2022/02/07 07:14:50;;;;;;;0.80;0.80;;;;;;;0.98;88.28;97585.23;437484;1270;141572;-60
2022/02/07 07:24:56;;;;;;;1.50;1.40;;;;;;;0.98;88.11;97620.21;440435;1270;141209;-60
2022/02/07 07:35:02;;;;;;;1.70;1.30;;;;;;;1.03;88.07;97660.92;439004;1270;142401;-60
2022/02/07 07:45:10;;;;;;;2.60;2.30;;;;;;;1.00;88.09;97685.74;433987;1270;140843;-60
2022/02/07 07:55:28;;;;;;;2.60;1.50;;;;;;;1.02;88.03;97705.83;437050;1269;140672;-60
2022/02/07 08:05:43;;;;;;;2.60;2.30;;;;;;;1.05;88.09;97720.64;433008;1269;143467;-59
2022/02/07 08:15:49;;;;;;;2.40;2.20;;;;;;;1.08;88.07;97738.73;437064;1269;143204;-58
2022/02/07 08:25:57;;;;;;;2.60;2.40;;;;;;;1.09;87.86;97760.20;431722;1269;141398;-62
2022/02/07 08:36:23;;;;;;;2.20;2.00;;;;;;;1.06;87.81;97782.80;433819;1268;142031;-60
2022/02/07 08:46:30;;;;;;;3.20;3.00;;;;;;;0.94;87.52;97817.34;433322;1269;142021;-61
2022/02/07 08:56:48;;;;;;;3.70;3.10;;;;;;;0.76;87.35;97842.25;435286;1269;141815;-60
2022/02/07 09:07:01;;;;;;;5.10;4.00;;;;;;;0.66;87.26;97872.71;432561;1269;141534;-60
2022/02/07 09:17:07;;;;;;;4.60;2.60;;;;;;;0.66;87.55;97900.77;431768;1271;140864;-59
2022/02/07 09:27:13;;;;;;;2.40;2.00;;;;;;;0.63;87.40;97931.77;437981;1270;141985;-60
2022/02/07 09:37:19;;;;;;;2.30;1.70;;;;;;;0.35;87.32;97961.02;436475;1269;186291;-70
2022/02/07 09:47:25;;;;;;;2.90;1.50;;;;;;;0.52;87.61;97980.19;442834;1268;142115;-62
2022/02/07 09:57:31;;;;;;;4.30;1.40;;;;;;;0.98;87.05;98003.08;434805;1271;141682;-60
2022/02/07 10:07:49;;;;;;;1.40;1.30;;;;;;;1.49;86.57;98026.55;434447;1270;142806;-59
2022/02/07 10:18:12;;;;;;;2.20;1.50;;;;;;;1.38;85.63;98040.40;430981;1271;198400;-59
2022/02/07 10:39:01;;;;;;;2.00;1.60;;;;;;;1.03;86.47;98077.95;435765;1271;142019;-63
2022/02/07 10:49:11;;;;;;;1.40;1.20;;;;;;;1.44;85.97;98091.31;437383;1270;142399;-60
2022/02/07 10:59:21;;;;;;;2.40;1.50;;;;;;;1.55;84.81;98102.48;431509;1270;141706;-62
2022/02/07 11:09:35;;;;;;;2.80;1.90;;;;;;;1.50;84.41;98119.29;437609;1270;141387;-59
2022/02/07 11:19:52;;;;;;;2.10;1.40;;;;;;;1.43;84.90;98152.22;436666;1269;141535;-59
2022/02/07 11:30:00;;;;;;;3.30;2.30;;;;;;;1.82;84.38;98170.27;436032;1269;141663;-61
2022/02/07 11:40:27;;;;;;;4.10;1.10;;;;;;;2.24;83.83;98196.43;430983;1271;140780;-61
2022/02/07 11:50:34;;;;;;;2.10;0.70;;;;;;;2.66;80.63;98211.04;435163;1270;142582;-61
2022/02/07 12:00:47;;;;;;;2.10;1.30;;;;;;;2.42;78.03;98224.22;431084;1271;141328;-62
2022/02/07 12:21:28;;;;;;;3.20;1.10;;;;;;;2.40;78.11;98276.27;418369;1309;601766;-61
2022/02/07 12:31:40;;;;;;;2.20;1.40;;;;;;;2.34;77.50;98299.92;428874;1283;227121;-65
2022/02/07 12:41:46;;;;;;;4.70;1.00;;;;;;;2.35;76.19;98314.04;428557;1282;143247;-69
2022/02/07 12:51:53;;;;;;;2.70;0.90;;;;;;;2.40;75.44;98330.54;429008;1283;140516;-62
2022/02/07 13:01:59;;;;;;;1.90;0.60;;;;;;;2.49;75.48;98349.60;429336;1283;140157;-70
2022/02/07 13:12:14;;;;;;;2.50;1.10;;;;;;;2.60;75.19;98362.19;428258;1278;140953;-69
2022/02/07 13:22:22;;;;;;;3.60;1.30;;;;;;;2.79;74.47;98379.66;429337;1277;141466;-69
2022/02/07 13:32:31;;;;;;;4.60;1.90;;;;;;;2.92;75.36;98407.55;432029;1275;142818;-63
2022/02/07 13:42:40;;;;;;;3.40;1.50;;;;;;;2.85;75.73;98424.20;429331;1276;141173;-70
2022/02/07 13:52:48;;;;;;;9.20;2.60;;;;;;;2.84;75.65;98443.58;430514;1275;141050;-69
2022/02/07 14:03:10;;;;;;;3.80;1.60;;;;;;;2.79;75.77;98476.98;430276;1276;140882;-63
2022/02/07 14:13:18;;;;;;;5.50;1.30;;;;;;;2.69;75.70;98495.45;431148;1274;143262;-65
2022/02/07 14:23:27;;;;;;;2.30;1.20;;;;;;;2.59;75.91;98515.63;432091;1276;141389;-69
2022/02/07 14:33:33;;;;;;;3.60;1.50;;;;;;;2.57;75.98;98540.30;429780;1274;142213;-67
2022/02/07 14:43:43;;;;;;;2.30;1.60;;;;;;;2.48;75.88;98564.71;430271;1274;140468;-65
2022/02/07 14:53:50;;;;;;;6.40;1.90;;;;;;;2.38;76.44;98583.31;429912;1274;141719;-63
2022/02/07 15:03:56;;;;;;;4.60;1.80;;;;;;;2.35;76.66;98604.19;429729;1274;194941;-68
2022/02/07 15:14:02;;;;;;;4.00;2.30;;;;;;;2.28;77.04;98617.80;432507;1273;140565;-70
2022/02/07 15:24:09;;;;;;;4.60;2.60;;;;;;;2.15;77.44;98645.15;432430;1273;142505;-70
2022/02/07 15:34:16;;;;;;;4.60;2.20;;;;;;;2.00;77.82;98670.81;430747;1274;140613;-71
2022/02/07 15:44:20;;;;;;;;;;;;;;;1.92;78.13;98686.02;431270;1273;143319;-68
2022/02/07 15:54:28;;;;;;;3.30;1.50;;;;;;;1.81;78.46;98716.52;430415;1273;128135;-69
2022/02/07 16:04:34;;;;;;;5.20;1.70;;;;;;;1.49;78.59;98739.20;430728;1274;142394;-68
2022/02/07 16:14:41;;;;;;;5.70;2.30;;;;;;;1.30;79.18;98754.77;430034;1276;141232;-68
2022/02/07 16:24:46;;;;;;;3.40;1.60;;;;;;;1.26;79.57;98771.50;430075;1274;142506;-68
2022/02/07 16:34:52;;;;;;;3.80;2.00;;;;;;;1.23;79.73;98781.11;430694;1273;141603;-65
2022/02/07 16:45:04;;;;;;;4.60;1.40;;;;;;;1.17;79.77;98798.92;429929;1273;142422;-68
2022/02/07 16:55:12;;;;;;;3.10;1.90;;;;;;;1.14;79.95;98816.24;429929;1274;141103;-67
2022/02/07 17:05:19;;;;;;;3.60;1.60;;;;;;;1.17;79.71;98835.81;434919;1273;140178;-63
2022/02/07 17:15:24;;;;;;;6.20;1.90;;;;;;;1.27;79.46;98849.04;440218;1274;143964;-62
2022/02/07 17:25:30;;;;;;;3.40;1.80;;;;;;;1.11;79.13;98864.11;429520;1275;141856;-62
2022/02/07 17:35:37;;;;;;;5.90;2.10;;;;;;;0.80;79.58;98890.03;430722;1273;140593;-67
2022/02/07 17:45:42;;;;;;;5.90;2.50;;;;;;;0.51;80.00;98912.91;431914;1274;141600;-62
2022/02/07 17:55:48;;;;;;;4.80;2.90;;;;;;;0.23;80.33;98923.98;438069;1273;193059;-62
2022/02/07 18:05:54;;;;;;;7.10;3.60;;;;;;;0.05;80.95;98928.66;429152;1273;141646;-63
2022/02/07 18:16:02;;;;;;;11.50;3.40;;;;;;;-0.00;81.40;98946.56;431296;1274;141182;-65
2022/02/07 18:26:08;;;;;;;13.70;3.20;;;;;;;0.04;81.34;98963.66;442532;1274;142179;-62
2022/02/07 18:36:14;;;;;;;9.60;3.30;;;;;;;0.05;81.28;98980.13;430217;1274;195859;-62
2022/02/07 18:46:22;;;;;;;8.10;3.70;;;;;;;0.05;81.13;98993.36;439551;1274;140581;-63
2022/02/07 18:56:29;;;;;;;8.30;3.50;;;;;;;0.07;81.18;99012.23;432515;1274;141574;-63
2022/02/07 19:06:37;;;;;;;6.80;2.60;;;;;;;0.08;80.82;99023.60;437042;1274;142768;-67
2022/02/07 19:16:45;;;;;;;10.70;3.40;;;;;;;0.07;80.59;99033.27;445665;1273;141016;-64
2022/02/07 19:27:06;;;;;;;15.40;4.30;;;;;;;0.04;80.56;99056.23;434436;1274;142703;-63
2022/02/07 19:37:12;;;;;;;11.00;4.10;;;;;;;0.06;80.55;99077.70;439979;1274;141259;-62
2022/02/07 19:47:21;;;;;;;14.20;4.00;;;;;;;0.09;80.39;99097.73;437980;1274;142021;-60
2022/02/07 19:57:30;;;;;;;10.90;3.40;;;;;;;0.41;80.04;99105.59;435807;1273;141476;-61
2022/02/07 20:07:37;;;;;;;14.80;4.20;;;;;;;0.44;79.70;99118.58;439524;1274;140865;-62
2022/02/07 20:17:43;;;;;;;11.30;4.20;;;;;;;0.18;79.81;99129.85;440212;1274;142745;-62
2022/02/07 20:27:50;;;;;;;13.20;4.10;;;;;;;-0.05;79.95;99146.67;441076;1274;141594;-63
2022/02/07 20:37:56;;;;;;;14.80;5.00;;;;;;;-0.09;80.44;99156.91;437039;1274;141890;-66
2022/02/07 20:48:05;;;;;;;15.50;4.30;;;;;;;0.18;80.57;99170.98;428368;1273;142144;-65
2022/02/07 20:58:12;;;;;;;8.30;4.00;;;;;;;0.30;80.13;99184.78;429883;1274;143340;-63
2022/02/07 21:08:38;;;;;;;11.30;3.70;;;;;;;0.37;80.17;99200.92;429892;1273;141544;-68
2022/02/07 21:18:44;;;;;;;14.20;4.20;;;;;;;0.54;80.17;99215.95;430172;1274;141378;-69
2022/02/07 21:28:51;;;;;;;13.20;4.40;;;;;;;0.68;80.19;99233.13;431331;1273;141271;-60
2022/02/07 21:38:57;;;;;;;9.70;3.90;;;;;;;0.82;80.10;99240.13;430881;1273;141231;-62
2022/02/07 21:49:03;;;;;;;15.50;4.80;;;;;;;0.93;79.71;99251.16;430554;1273;141882;-60
2022/02/07 21:59:11;;;;;;;12.90;4.40;;;;;;;1.02;79.64;99260.73;431115;1274;141959;-60
2022/02/07 22:09:19;;;;;;;15.70;5.80;;;;;;;1.08;79.31;99278.13;430681;1274;142469;-61
2022/02/07 22:19:26;;;;;;;11.50;4.80;;;;;;;1.14;79.10;99295.88;431404;1273;141134;-60
2022/02/07 22:29:34;;;;;;;14.90;4.50;;;;;;;1.24;79.14;99313.34;430970;1273;140265;-61
2022/02/07 22:39:40;;;;;;;11.70;4.20;;;;;;;1.31;79.10;99325.39;429948;1273;144189;-63
2022/02/07 22:49:46;;;;;;;21.10;5.70;;;;;;;1.34;79.21;99332.23;431561;1274;141482;-61
2022/02/07 22:59:51;;;;;;;15.40;5.10;;;;;;;1.36;79.47;99351.45;430581;1273;163451;-61
2022/02/07 23:10:13;;;;;;;14.90;4.40;;;;;;;1.43;79.51;99359.71;431122;1273;142074;-65
2022/02/07 23:20:33;;;;;;;13.70;4.40;;;;;;;1.46;79.56;99378.27;431269;1274;141052;-59
2022/02/07 23:30:52;;;;;;;8.40;3.60;;;;;;;1.48;79.50;99388.21;430433;1274;141958;-60
2022/02/07 23:51:25;;;;;;;11.40;3.70;;;;;;;1.45;79.61;99410.88;429395;1276;142027;-59
